Mooleyville, Kentucky
Current Conditions -  °F | °C
As of 2:58 PM on Saturday 20 Dec 2014 (Local Time) from KFTK Reporting Station
Overcast Overcast  
Wind Chill: 34°   Ceiling: 6500
Heat Index: 38°   Visibility: 10mi
Dew Point: 26°   Wind: 5mph
Humidity: 63%   Direction: 300°WNW
Pressure: 30.23"   Gusts: NA
Location:  37.7834°N, 86.4612°W
Report Text: KFTK 202058Z AUTO 30004KT 10SM OVC065 03/M03 A3023 RMK AO2 SLP246 T00321032 55006
Loading
Personal Weather Stations






























Interactive Weather Map New forecast layout! Learn more

10-Day Weather Forecast

Advertisements
Track Severe Weather on mobile